Авиационная погода в Братске

Регион: 
Погода METAR: 
UIBB 221800Z AUTO 00000MPS 9999 // NSC M17/M18 Q1029 RMK QFE728/0971
Время наблюдения
2022-01-22T18:00:00Z
Температура C
-17.0
Точка росы
-18.0
Направление ветра
0
Скорость ветра (узлы)
0
Метео видимость
6.21
Облачность
CLR
Нижняя граница облачности (футы)
Явления погоды
Условия полета
VFR
Аэропорт подробнее: 
CLR — нет облаков ниже 3000 м